createdAt,value
2019-05-20T00:02:01.329Z,33.90
2019-05-20T00:04:31.117Z,42.20
2019-05-20T00:07:00.908Z,38.10
2019-05-20T00:09:30.702Z,38.13
2019-05-20T00:12:00.519Z,37.97
2019-05-20T00:14:31.909Z,35.37
2019-05-20T00:17:02.476Z,34.93
2019-05-20T00:19:32.353Z,40.80
2019-05-20T00:22:02.162Z,40.50
2019-05-20T00:24:31.940Z,41.10
2019-05-20T00:27:01.738Z,47.53
2019-05-20T00:29:31.561Z,45.30
2019-05-20T00:32:01.402Z,45.50
2019-05-20T00:34:35.125Z,45.63
2019-05-20T00:37:02.681Z,43.80
2019-05-20T00:39:32.472Z,45.13
2019-05-20T00:42:02.288Z,45.90
2019-05-20T00:44:32.081Z,49.73
2019-05-20T00:47:01.873Z,44.83
2019-05-20T00:49:31.671Z,49.87
2019-05-20T00:52:02.554Z,49.63
2019-05-20T00:54:32.400Z,48.53
2019-05-20T00:57:02.206Z,49.37
2019-05-20T00:59:31.987Z,50.20
2019-05-20T01:02:02.744Z,49.13
2019-05-20T01:04:32.549Z,51.50
2019-05-20T01:07:02.337Z,49.90
2019-05-20T01:09:32.144Z,52.30
2019-05-20T01:12:02.010Z,53.73
2019-05-20T01:14:31.791Z,52.43
2019-05-20T01:17:01.892Z,51.83
2019-05-20T01:19:31.954Z,52.33
2019-05-20T01:22:01.762Z,55.97
2019-05-20T01:24:31.545Z,60.20
2019-05-20T01:27:01.344Z,51.40
2019-05-20T01:29:31.136Z,52.33
2019-05-20T01:32:00.954Z,53.80
2019-05-20T01:34:30.773Z,51.63
2019-05-20T01:37:00.574Z,54.07
2019-05-20T01:39:31.407Z,55.40
2019-05-20T01:42:01.221Z,59.20
2019-05-20T01:44:31.036Z,57.60
2019-05-20T01:47:00.814Z,56.53
2019-05-20T01:49:30.620Z,56.00
2019-05-20T01:52:00.406Z,55.27
2019-05-20T01:54:30.204Z,56.83
2019-05-20T01:56:59.995Z,58.33
2019-05-20T01:59:29.828Z,54.13
2019-05-20T02:01:59.636Z,57.17
2019-05-20T02:04:29.436Z,61.50
2019-05-20T02:06:59.231Z,59.20
2019-05-20T02:09:29.035Z,56.13
2019-05-20T02:11:58.828Z,60.63
2019-05-20T02:14:33.109Z,58.97
2019-05-20T02:17:02.953Z,53.70
2019-05-20T02:19:33.057Z,58.17
2019-05-20T02:22:02.924Z,62.50
2019-05-20T02:24:32.739Z,59.60
2019-05-20T02:27:02.547Z,58.87
2019-05-20T02:29:32.339Z,63.40
2019-05-20T02:32:02.170Z,64.50
2019-05-20T02:34:31.952Z,57.43
2019-05-20T02:37:01.759Z,56.13
2019-05-20T02:39:31.544Z,64.10
2019-05-20T02:42:01.425Z,57.37
2019-05-20T02:44:31.231Z,60.10
2019-05-20T02:47:01.035Z,57.10
2019-05-20T02:49:30.833Z,56.83
2019-05-20T02:52:00.612Z,55.07
2019-05-20T02:54:30.413Z,56.27
2019-05-20T02:57:00.214Z,57.60
2019-05-20T02:59:29.999Z,56.57
2019-05-20T03:01:59.831Z,57.97
2019-05-20T03:04:29.659Z,53.13
2019-05-20T03:06:59.525Z,56.03
2019-05-20T03:09:29.337Z,48.07
2019-05-20T03:11:59.120Z,51.47
2019-05-20T03:14:29.005Z,51.53
2019-05-20T03:16:58.793Z,53.23
2019-05-20T03:19:28.600Z,53.60
2019-05-20T03:21:58.405Z,49.90
2019-05-20T03:24:28.182Z,50.77
2019-05-20T03:26:58.053Z,51.30
2019-05-20T03:29:27.843Z,49.40
2019-05-20T03:31:57.636Z,44.37
2019-05-20T03:34:44.931Z,50.50
2019-05-20T03:36:58.938Z,49.13
2019-05-20T03:39:29.152Z,53.10
2019-05-20T03:41:58.966Z,51.50
2019-05-20T03:44:28.905Z,50.10
2019-05-20T03:46:58.713Z,50.77
2019-05-20T03:49:28.510Z,49.63
2019-05-20T03:51:58.339Z,52.50
2019-05-20T03:54:28.126Z,53.80
2019-05-20T03:56:57.915Z,48.20
2019-05-20T03:59:27.716Z,51.20
2019-05-20T04:01:57.521Z,50.13
2019-05-20T04:04:27.318Z,48.53
2019-05-20T04:06:57.118Z,49.87
2019-05-20T04:09:26.923Z,54.93
2019-05-20T04:11:56.705Z,54.93
2019-05-20T04:14:26.506Z,51.23
2019-05-20T04:16:56.311Z,52.13
2019-05-20T04:19:26.091Z,51.37
2019-05-20T04:21:55.902Z,51.93
2019-05-20T04:24:25.848Z,51.17
2019-05-20T04:27:00.511Z,46.57
2019-05-20T04:29:30.301Z,49.03
2019-05-20T04:32:00.104Z,45.27
2019-05-20T04:34:29.891Z,49.53
2019-05-20T04:36:59.690Z,45.47
2019-05-20T04:39:29.479Z,48.73
2019-05-20T04:42:00.368Z,45.27
2019-05-20T04:44:30.724Z,45.73
2019-05-20T04:47:00.520Z,46.40
2019-05-20T04:49:30.317Z,45.63
2019-05-20T04:52:00.123Z,45.33
2019-05-20T04:54:29.921Z,42.97
2019-05-20T04:56:59.795Z,40.67
2019-05-20T04:59:29.588Z,43.90
2019-05-20T05:01:59.401Z,39.77
2019-05-20T05:04:29.222Z,45.87
2019-05-20T05:06:59.045Z,44.53
2019-05-20T05:09:28.883Z,43.30
2019-05-20T05:11:58.706Z,42.03
2019-05-20T05:14:28.513Z,40.43
2019-05-20T05:16:58.324Z,40.63
2019-05-20T05:19:28.124Z,42.13
2019-05-20T05:21:59.511Z,40.07
2019-05-20T05:24:29.321Z,36.73
2019-05-20T05:26:59.138Z,34.50
2019-05-20T05:29:28.937Z,38.27
2019-05-20T05:31:58.800Z,39.20
2019-05-20T05:34:28.600Z,36.37
2019-05-20T05:36:58.385Z,35.07
2019-05-20T05:39:28.195Z,37.43
2019-05-20T05:41:58.961Z,33.63
2019-05-20T05:44:28.744Z,34.60
2019-05-20T05:46:58.581Z,34.53
2019-05-20T05:49:28.434Z,36.53
2019-05-20T05:51:58.247Z,35.03
2019-05-20T05:54:29.592Z,33.90
2019-05-20T05:56:59.399Z,32.70
2019-05-20T05:59:29.215Z,37.00
2019-05-20T06:01:58.998Z,34.80
2019-05-20T06:04:28.804Z,37.17
2019-05-20T06:06:58.589Z,33.87
2019-05-20T06:09:28.390Z,33.07
2019-05-20T06:11:58.188Z,35.27
2019-05-20T06:14:27.971Z,35.63
2019-05-20T06:16:57.772Z,34.47
2019-05-20T06:19:27.559Z,37.00
2019-05-20T06:21:57.359Z,33.40
2019-05-20T06:24:27.153Z,34.03
2019-05-20T06:26:56.964Z,34.23
2019-05-20T06:29:26.770Z,35.47
2019-05-20T06:31:56.557Z,33.97
2019-05-20T06:34:26.343Z,36.20
2019-05-20T06:36:57.870Z,45.70
2019-05-20T06:39:27.795Z,37.63
2019-05-20T06:41:57.603Z,37.63
2019-05-20T06:44:27.423Z,36.03
2019-05-20T06:46:57.214Z,37.03
2019-05-20T06:49:27.019Z,36.33
2019-05-20T06:51:56.880Z,35.37
2019-05-20T06:54:26.700Z,36.30
2019-05-20T06:56:56.549Z,36.87
2019-05-20T06:59:27.088Z,33.23
2019-05-20T07:01:56.879Z,35.07
2019-05-20T07:04:26.849Z,34.40
2019-05-20T07:06:56.741Z,35.00
2019-05-20T07:09:26.574Z,36.57
2019-05-20T07:11:56.414Z,33.50
2019-05-20T07:14:26.222Z,32.70
2019-05-20T07:16:56.029Z,35.70
2019-05-20T07:19:25.901Z,31.00
2019-05-20T07:21:55.711Z,34.20
2019-05-20T07:24:25.503Z,34.07
2019-05-20T07:26:56.372Z,28.10
2019-05-20T07:29:26.163Z,29.80
2019-05-20T07:31:55.973Z,31.67
2019-05-20T07:34:25.786Z,29.80
2019-05-20T07:37:03.427Z,27.20
2019-05-20T07:39:27.154Z,27.93
2019-05-20T07:41:56.937Z,28.03
2019-05-20T07:44:26.810Z,31.77
2019-05-20T07:46:56.770Z,28.37
2019-05-20T07:49:26.650Z,28.40
2019-05-20T07:51:57.279Z,30.27
2019-05-20T07:54:27.620Z,25.10
2019-05-20T07:57:00.511Z,26.40
2019-05-20T07:59:33.657Z,28.07
2019-05-20T08:02:03.784Z,27.80
2019-05-20T08:04:33.699Z,27.40
2019-05-20T08:07:26.030Z,27.77
2019-05-20T08:09:42.525Z,28.17
2019-05-20T08:12:06.754Z,27.60
2019-05-20T08:14:36.626Z,26.80
2019-05-20T08:17:06.447Z,29.40
2019-05-20T08:19:36.285Z,32.83
2019-05-20T08:22:06.140Z,25.97
2019-05-20T08:24:35.943Z,25.33
2019-05-20T08:27:06.807Z,27.93
2019-05-20T08:29:36.620Z,27.67
2019-05-20T08:32:06.430Z,30.30
2019-05-20T08:34:36.626Z,25.90
2019-05-20T08:37:07.276Z,25.60
2019-05-20T08:39:37.091Z,29.80
2019-05-20T08:42:10.065Z,30.77
2019-05-20T08:44:40.032Z,29.33
2019-05-20T08:47:10.021Z,31.13
2019-05-20T08:49:44.113Z,35.03
2019-05-20T08:52:18.041Z,34.27
2019-05-20T08:54:52.460Z,34.23
2019-05-20T08:57:22.311Z,39.23
2019-05-20T08:59:52.159Z,32.80
2019-05-20T09:02:21.964Z,32.30
2019-05-20T09:04:51.743Z,35.80
2019-05-20T09:07:21.561Z,33.70
2019-05-20T09:09:52.179Z,27.40
2019-05-20T09:12:21.985Z,29.50
2019-05-20T09:14:51.763Z,29.20
2019-05-20T09:17:21.656Z,32.20
2019-05-20T09:19:51.439Z,27.60
2019-05-20T09:22:21.252Z,28.53
2019-05-20T09:24:51.291Z,27.13
2019-05-20T09:27:21.383Z,26.73
2019-05-20T09:29:51.181Z,27.77
2019-05-20T09:32:21.134Z,26.60
2019-05-20T09:34:50.907Z,26.97
2019-05-20T09:37:21.027Z,27.47
2019-05-20T09:39:50.832Z,31.83
2019-05-20T09:42:20.614Z,29.63
2019-05-20T09:44:50.424Z,27.23
2019-05-20T09:47:20.211Z,26.33
2019-05-20T09:49:50.030Z,29.30
2019-05-20T09:52:19.866Z,28.00
2019-05-20T09:54:49.672Z,29.53
2019-05-20T09:57:19.541Z,35.23
2019-05-20T09:59:49.414Z,34.33
2019-05-20T10:02:19.216Z,38.50
2019-05-20T10:04:49.020Z,45.17
2019-05-20T10:07:18.880Z,40.97
2019-05-20T10:09:48.662Z,46.57
2019-05-20T10:12:18.539Z,42.27
2019-05-20T10:14:48.328Z,42.23
2019-05-20T10:17:18.129Z,44.17
2019-05-20T10:19:47.929Z,33.93
2019-05-20T10:22:17.737Z,37.27
2019-05-20T10:24:47.601Z,35.10
2019-05-20T10:27:17.399Z,38.17
2019-05-20T10:29:47.195Z,37.03
2019-05-20T10:32:17.004Z,36.63
2019-05-20T10:34:46.789Z,36.33
2019-05-20T10:37:16.590Z,38.30
2019-05-20T10:39:46.393Z,44.90
2019-05-20T10:42:16.259Z,39.07
2019-05-20T10:44:46.045Z,44.73
2019-05-20T10:47:15.839Z,42.00
2019-05-20T10:49:45.647Z,42.50
2019-05-20T10:52:15.431Z,42.67
2019-05-20T10:54:45.240Z,42.57
2019-05-20T10:57:15.027Z,40.93
2019-05-20T10:59:45.819Z,39.03
2019-05-20T11:02:15.673Z,40.80
2019-05-20T11:04:45.473Z,39.73
2019-05-20T11:07:15.274Z,37.10
2019-05-20T11:09:45.068Z,39.73
2019-05-20T11:12:14.854Z,41.97
2019-05-20T11:14:44.653Z,37.30
2019-05-20T11:17:15.325Z,34.70
2019-05-20T11:19:46.184Z,36.50
2019-05-20T11:22:16.050Z,40.27
2019-05-20T11:24:45.995Z,41.47
2019-05-20T11:27:15.892Z,41.17
2019-05-20T11:29:45.665Z,36.33
2019-05-20T11:32:15.483Z,38.50
2019-05-20T11:34:45.285Z,39.50
2019-05-20T11:37:15.079Z,40.67
2019-05-20T11:39:44.875Z,38.57
2019-05-20T11:42:14.697Z,41.90
2019-05-20T11:44:44.531Z,42.67
2019-05-20T11:47:14.392Z,41.33
2019-05-20T11:49:44.194Z,43.50
2019-05-20T11:52:14.122Z,44.47
2019-05-20T11:54:43.942Z,45.13
2019-05-20T11:57:13.723Z,46.77
2019-05-20T11:59:43.538Z,46.60
2019-05-20T12:02:13.332Z,40.67
2019-05-20T12:04:43.147Z,40.40
2019-05-20T12:07:12.942Z,42.53
2019-05-20T12:09:49.565Z,41.40
2019-05-20T12:12:14.262Z,45.37
2019-05-20T12:14:44.133Z,42.87
2019-05-20T12:17:14.883Z,43.60
2019-05-20T12:19:44.689Z,42.37
2019-05-20T12:22:14.489Z,41.47
2019-05-20T12:24:44.286Z,44.50
2019-05-20T12:27:14.080Z,41.17
2019-05-20T12:29:43.940Z,40.80
2019-05-20T12:32:13.746Z,43.23
2019-05-20T12:34:43.529Z,40.47
2019-05-20T12:37:13.412Z,39.90
2019-05-20T12:39:43.204Z,39.60
2019-05-20T12:42:13.289Z,37.87
2019-05-20T12:44:43.336Z,40.03
2019-05-20T12:47:13.154Z,38.63
2019-05-20T12:49:44.028Z,41.68
2019-05-20T12:52:13.854Z,40.40
2019-05-20T12:54:43.636Z,36.40
2019-05-20T12:57:13.501Z,38.40
2019-05-20T12:59:43.309Z,36.90
2019-05-20T13:02:17.020Z,38.97
2019-05-20T13:04:44.611Z,38.53
2019-05-20T13:07:14.417Z,40.53
2019-05-20T13:09:44.219Z,37.53
2019-05-20T13:12:14.002Z,38.57
2019-05-20T13:14:43.803Z,39.27
2019-05-20T13:17:13.579Z,40.23
2019-05-20T13:19:43.382Z,44.20
2019-05-20T13:22:13.172Z,43.77
2019-05-20T13:24:42.979Z,40.47
2019-05-20T13:27:12.759Z,39.10
2019-05-20T13:29:42.567Z,37.63
2019-05-20T13:32:12.355Z,43.30
2019-05-20T13:34:42.147Z,39.10
2019-05-20T13:37:12.048Z,37.60
2019-05-20T13:39:41.850Z,39.23
2019-05-20T13:42:11.635Z,36.90
2019-05-20T13:44:41.443Z,42.10
2019-05-20T13:47:11.235Z,47.40
2019-05-20T13:49:41.043Z,44.27
2019-05-20T13:52:10.831Z,42.50
2019-05-20T13:54:40.699Z,41.53
2019-05-20T13:57:13.263Z,41.00
2019-05-20T13:59:42.111Z,41.00
2019-05-20T14:02:11.898Z,44.43
2019-05-20T14:04:41.683Z,39.80
2019-05-20T14:07:11.493Z,47.10
2019-05-20T14:09:41.281Z,40.03
2019-05-20T14:12:11.075Z,40.63
2019-05-20T14:14:40.877Z,38.07
2019-05-20T14:17:10.688Z,42.87
2019-05-20T14:19:40.479Z,44.17
2019-05-20T14:22:10.285Z,42.50
2019-05-20T14:24:40.104Z,44.13
2019-05-20T14:27:09.890Z,44.30
2019-05-20T14:29:39.697Z,41.23
2019-05-20T14:32:09.488Z,43.50
2019-05-20T14:34:39.317Z,41.07
2019-05-20T14:37:09.103Z,43.10
2019-05-20T14:39:39.047Z,45.10
2019-05-20T14:42:08.858Z,42.27
2019-05-20T14:44:38.678Z,42.90
2019-05-20T14:47:08.464Z,47.87
2019-05-20T14:49:38.273Z,47.23
2019-05-20T14:52:08.083Z,48.33
2019-05-20T14:54:37.909Z,48.10
2019-05-20T14:57:07.697Z,46.40
2019-05-20T14:59:37.638Z,46.87
2019-05-20T15:02:07.445Z,47.60
2019-05-20T15:04:37.240Z,45.47
2019-05-20T15:07:07.028Z,46.90
2019-05-20T15:09:36.900Z,46.63
2019-05-20T15:12:06.690Z,45.77
2019-05-20T15:14:36.502Z,45.07
2019-05-20T15:17:06.461Z,44.13
2019-05-20T15:19:36.326Z,42.07
2019-05-20T15:22:06.283Z,40.40
2019-05-20T15:24:36.151Z,46.83
2019-05-20T15:27:06.111Z,44.57
2019-05-20T15:29:35.958Z,44.47
2019-05-20T15:32:05.855Z,43.40
2019-05-20T15:34:35.633Z,44.77
2019-05-20T15:37:05.478Z,44.63
2019-05-20T15:39:36.428Z,39.97
2019-05-20T15:42:06.286Z,41.07
2019-05-20T15:44:36.116Z,45.87
2019-05-20T15:47:05.930Z,43.17
2019-05-20T15:49:35.715Z,43.80
2019-05-20T15:52:05.592Z,47.03
2019-05-20T15:54:35.386Z,48.80
2019-05-20T15:57:05.183Z,79.23
2019-05-20T15:59:45.579Z,51.37
2019-05-20T16:02:06.495Z,68.33
2019-05-20T16:04:37.388Z,54.73
2019-05-20T16:07:07.257Z,45.50
2019-05-20T16:09:37.148Z,60.63
2019-05-20T16:12:06.939Z,47.50
2019-05-20T16:14:36.765Z,47.33
2019-05-20T16:17:06.638Z,41.37
2019-05-20T16:19:36.436Z,44.27
2019-05-20T16:22:06.336Z,40.13
2019-05-20T16:24:36.212Z,38.03
2019-05-20T16:27:06.005Z,42.10
2019-05-20T16:29:35.846Z,44.47
2019-05-20T16:32:05.772Z,37.23
2019-05-20T16:34:35.569Z,39.07
2019-05-20T16:37:05.376Z,36.53
2019-05-20T16:39:35.237Z,36.80
2019-05-20T16:42:05.068Z,34.63
2019-05-20T16:44:34.868Z,40.03
2019-05-20T16:47:04.749Z,31.57
2019-05-20T16:49:37.889Z,34.90
2019-05-20T16:52:09.350Z,30.30
2019-05-20T16:54:39.227Z,31.20
2019-05-20T16:57:09.103Z,29.67
2019-05-20T16:59:38.888Z,30.87
2019-05-20T17:02:08.771Z,28.43
2019-05-20T17:04:38.559Z,25.50
2019-05-20T17:07:09.439Z,31.03
2019-05-20T17:09:39.333Z,27.33
2019-05-20T17:12:09.193Z,27.07
2019-05-20T17:14:38.987Z,29.23
2019-05-20T17:17:08.863Z,25.63
2019-05-20T17:19:38.673Z,25.47
2019-05-20T17:22:08.463Z,25.07
2019-05-20T17:24:38.336Z,24.37
2019-05-20T17:27:08.125Z,22.97
2019-05-20T17:29:40.911Z,23.40
2019-05-20T17:32:10.877Z,25.10
2019-05-20T17:34:40.725Z,25.50
2019-05-20T17:37:10.523Z,24.97
2019-05-20T17:39:42.787Z,29.00
2019-05-20T17:42:12.649Z,31.63
2019-05-20T17:44:42.524Z,28.27
2019-05-20T17:47:12.316Z,28.30
2019-05-20T17:49:42.264Z,28.00
2019-05-20T17:52:12.048Z,33.17
2019-05-20T17:54:41.863Z,27.13
2019-05-20T17:57:11.650Z,28.60
2019-05-20T17:59:41.459Z,27.47
2019-05-20T18:02:12.625Z,27.47
2019-05-20T18:04:42.413Z,27.33
2019-05-20T18:07:12.216Z,30.08
2019-05-20T18:09:43.660Z,29.25
2019-05-20T18:12:13.482Z,33.10
2019-05-20T18:14:44.944Z,30.30
2019-05-20T18:17:14.833Z,29.37
2019-05-20T18:19:44.634Z,27.60
2019-05-20T18:22:14.504Z,28.30
2019-05-20T18:24:44.452Z,30.40
2019-05-20T18:27:14.244Z,30.53
2019-05-20T18:29:44.070Z,70.57
2019-05-20T18:32:13.938Z,41.00
2019-05-20T18:34:43.770Z,29.20
2019-05-20T18:37:13.560Z,28.17
2019-05-20T18:39:43.378Z,26.20
2019-05-20T18:42:13.306Z,25.50
2019-05-20T18:44:43.131Z,24.00
2019-05-20T18:47:12.956Z,25.33
2019-05-20T18:49:42.806Z,28.07
2019-05-20T18:52:12.675Z,27.53
2019-05-20T18:54:42.489Z,30.80
2019-05-20T18:57:12.294Z,23.20
2019-05-20T18:59:42.081Z,27.93
2019-05-20T19:02:11.898Z,28.37
2019-05-20T19:04:41.757Z,24.03
2019-05-20T19:07:11.645Z,27.37
2019-05-20T19:09:41.559Z,26.50
2019-05-20T19:12:11.712Z,27.60
2019-05-20T19:14:41.567Z,27.97
2019-05-20T19:17:11.391Z,25.87
2019-05-20T19:19:41.185Z,26.37
2019-05-20T19:22:10.995Z,29.63
2019-05-20T19:24:40.846Z,30.50
2019-05-20T19:27:11.217Z,31.45
2019-05-20T19:29:41.279Z,31.97
2019-05-20T19:32:11.866Z,31.67
2019-05-20T19:34:41.941Z,31.07
2019-05-20T19:37:11.785Z,30.07
2019-05-20T19:39:41.609Z,32.73
2019-05-20T19:42:11.496Z,30.73
2019-05-20T19:44:41.299Z,31.93
2019-05-20T19:47:11.208Z,31.65
2019-05-20T19:49:42.571Z,30.88
2019-05-20T19:52:12.680Z,32.80
2019-05-20T19:54:42.597Z,31.87
2019-05-20T19:57:13.095Z,32.38
2019-05-20T19:59:42.886Z,30.35
2019-05-20T20:02:17.269Z,34.08
2019-05-20T20:04:44.527Z,29.72
2019-05-20T20:07:15.358Z,30.97
2019-05-20T20:09:45.190Z,27.87
2019-05-20T20:12:14.983Z,29.30
2019-05-20T20:14:44.791Z,28.83
2019-05-20T20:17:14.587Z,29.60
2019-05-20T20:19:44.396Z,31.10
2019-05-20T20:22:14.197Z,29.00
2019-05-20T20:24:44.007Z,29.73
2019-05-20T20:27:13.801Z,31.00
2019-05-20T20:29:43.596Z,28.83
2019-05-20T20:32:13.405Z,32.33
2019-05-20T20:34:43.214Z,39.27
2019-05-20T20:37:13.005Z,33.83
2019-05-20T20:39:42.908Z,41.13
2019-05-20T20:42:13.682Z,35.17
2019-05-20T20:44:43.496Z,38.67
2019-05-20T20:47:13.292Z,39.17
2019-05-20T20:49:43.110Z,50.50
2019-05-20T20:52:12.986Z,47.30
2019-05-20T20:54:42.816Z,46.27
2019-05-20T20:57:12.613Z,42.93
2019-05-20T20:59:42.422Z,49.27
2019-05-20T21:02:12.393Z,44.73
2019-05-20T21:04:42.186Z,46.53
2019-05-20T21:07:11.984Z,42.10
2019-05-20T21:09:41.788Z,42.43
2019-05-20T21:12:11.607Z,39.87
2019-05-20T21:14:41.395Z,39.83
2019-05-20T21:17:11.216Z,38.10
2019-05-20T21:19:41.003Z,39.73
2019-05-20T21:22:10.836Z,42.37
2019-05-20T21:24:40.663Z,35.37
2019-05-20T21:27:10.479Z,34.40
2019-05-20T21:29:40.322Z,30.97
2019-05-20T21:32:10.133Z,39.93
2019-05-20T21:34:39.939Z,35.80
2019-05-20T21:37:09.743Z,35.33
2019-05-20T21:39:39.543Z,30.33
2019-05-20T21:42:09.351Z,36.40
2019-05-20T21:44:39.169Z,36.90
2019-05-20T21:47:08.972Z,40.43
2019-05-20T21:49:38.861Z,37.23
2019-05-20T21:52:08.655Z,34.27
2019-05-20T21:54:38.463Z,38.77
2019-05-20T21:57:08.263Z,38.43
2019-05-20T21:59:38.072Z,36.33
2019-05-20T22:02:07.940Z,41.87
2019-05-20T22:04:37.747Z,37.27
2019-05-20T22:07:07.542Z,38.83
2019-05-20T22:09:39.727Z,40.23
2019-05-20T22:12:09.525Z,36.50
2019-05-20T22:14:39.319Z,39.67
2019-05-20T22:17:09.139Z,38.00
2019-05-20T22:19:39.400Z,37.10
2019-05-20T22:22:27.876Z,39.13
2019-05-20T22:24:57.671Z,34.33
2019-05-20T22:27:27.483Z,34.30
2019-05-20T22:29:57.263Z,34.40
2019-05-20T22:32:27.077Z,34.97
2019-05-20T22:34:56.887Z,33.97
2019-05-20T22:37:26.691Z,34.87
2019-05-20T22:39:56.495Z,35.87
2019-05-20T22:42:26.311Z,34.67
2019-05-20T22:44:56.107Z,30.50
2019-05-20T22:47:25.908Z,33.53
2019-05-20T22:49:55.754Z,39.00
2019-05-20T22:52:25.558Z,35.10
2019-05-20T22:54:55.359Z,40.13
2019-05-20T22:57:25.156Z,36.23
2019-05-20T22:59:54.963Z,39.00
2019-05-20T23:02:24.759Z,42.80
2019-05-20T23:04:54.579Z,43.53
2019-05-20T23:07:24.433Z,49.83
2019-05-20T23:09:54.235Z,46.90
2019-05-20T23:12:24.034Z,48.20
2019-05-20T23:14:53.842Z,47.07
2019-05-20T23:17:23.644Z,46.03
2019-05-20T23:19:53.440Z,41.50
2019-05-20T23:22:23.237Z,43.67
2019-05-20T23:24:53.226Z,45.97
2019-05-20T23:27:23.015Z,41.70
2019-05-20T23:29:52.818Z,46.53
2019-05-20T23:32:23.672Z,42.10
2019-05-20T23:34:53.531Z,44.50
2019-05-20T23:37:23.311Z,38.13
2019-05-20T23:39:54.193Z,36.67
2019-05-20T23:42:23.987Z,38.87
2019-05-20T23:44:53.797Z,35.67
2019-05-20T23:47:23.593Z,30.97
2019-05-20T23:49:53.405Z,30.67
2019-05-20T23:52:23.201Z,31.07
2019-05-20T23:54:53.021Z,33.87
2019-05-20T23:57:23.567Z,28.80
2019-05-20T23:59:53.370Z,31.40
